createdAt,value
2023-02-13T00:02:26.250Z,100.00
2023-02-13T00:04:55.732Z,100.00
2023-02-13T00:07:25.981Z,100.00
2023-02-13T00:09:55.866Z,100.00
2023-02-13T00:12:32.428Z,100.00
2023-02-13T00:15:03.489Z,100.00
2023-02-13T00:17:33.533Z,100.00
2023-02-13T00:20:04.090Z,100.00
2023-02-13T00:22:37.992Z,100.00
2023-02-13T00:25:08.293Z,100.00
2023-02-13T00:27:42.992Z,100.00
2023-02-13T00:30:13.489Z,100.00
2023-02-13T00:32:43.098Z,100.00
2023-02-13T00:35:12.333Z,100.00
2023-02-13T00:37:43.201Z,100.00
2023-02-13T00:40:14.237Z,100.00
2023-02-13T00:42:44.176Z,100.00
2023-02-13T00:45:15.038Z,100.00
2023-02-13T00:47:45.188Z,100.00
2023-02-13T00:50:18.588Z,100.00
2023-02-13T00:52:48.714Z,100.00
2023-02-13T00:55:21.956Z,100.00
2023-02-13T00:57:51.264Z,100.00
2023-02-13T01:00:21.001Z,100.00
2023-02-13T01:02:50.568Z,100.00
2023-02-13T01:05:21.952Z,100.00
2023-02-13T01:07:52.405Z,100.00
2023-02-13T01:10:23.556Z,100.00
2023-02-13T01:12:53.512Z,100.00
2023-02-13T01:15:23.182Z,100.00
2023-02-13T01:17:55.726Z,100.00
2023-02-13T01:20:56.820Z,100.00
2023-02-13T01:23:34.927Z,100.00
2023-02-13T01:26:07.163Z,100.00
2023-02-13T01:28:37.150Z,100.00
2023-02-13T01:31:19.169Z,100.00
2023-02-13T01:33:48.542Z,100.00
2023-02-13T01:36:19.071Z,100.00
2023-02-13T01:38:49.557Z,100.00
2023-02-13T01:41:19.100Z,100.00
2023-02-13T01:43:57.843Z,100.00
2023-02-13T01:46:34.141Z,100.00
2023-02-13T01:49:21.986Z,100.00
2023-02-13T01:51:54.587Z,100.00
2023-02-13T01:54:31.587Z,100.00
2023-02-13T01:57:05.990Z,100.00
2023-02-13T01:59:40.189Z,100.00
2023-02-13T02:02:10.496Z,100.00
2023-02-13T02:04:40.851Z,100.00
2023-02-13T02:07:28.034Z,100.00
2023-02-13T02:10:10.669Z,100.00
2023-02-13T02:12:52.896Z,100.00
2023-02-13T02:15:23.054Z,100.00
2023-02-13T02:17:53.844Z,100.00
2023-02-13T02:20:53.833Z,100.00
2023-02-13T02:23:43.330Z,100.00
2023-02-13T02:26:32.779Z,100.00
2023-02-13T02:29:15.750Z,100.00
2023-02-13T02:31:54.372Z,100.00
2023-02-13T02:34:52.559Z,100.00
2023-02-13T02:37:28.550Z,100.00
2023-02-13T02:40:01.399Z,100.00
2023-02-13T02:43:02.024Z,100.00
2023-02-13T02:45:54.712Z,100.00
2023-02-13T02:48:53.625Z,100.00
2023-02-13T02:51:39.773Z,100.00
2023-02-13T02:54:49.983Z,100.00
2023-02-13T02:57:26.424Z,100.00
2023-02-13T03:00:18.250Z,100.00
2023-02-13T03:03:05.994Z,100.00
2023-02-13T03:06:03.286Z,100.00
2023-02-13T03:08:51.566Z,100.00
2023-02-13T03:11:39.148Z,100.00
2023-02-13T03:14:10.323Z,100.00
2023-02-13T03:16:58.678Z,100.00
2023-02-13T03:19:50.675Z,100.00
2023-02-13T03:22:58.212Z,100.00
2023-02-13T03:25:36.351Z,100.00
2023-02-13T03:28:27.283Z,100.00
2023-02-13T03:31:32.294Z,100.00
2023-02-13T03:34:22.396Z,100.00
2023-02-13T03:37:19.675Z,100.00
2023-02-13T03:39:51.012Z,100.00
2023-02-13T03:42:38.562Z,100.00
2023-02-13T03:45:47.312Z,100.00
2023-02-13T03:48:52.490Z,100.00
2023-02-13T03:51:33.158Z,100.00
2023-02-13T03:54:15.109Z,100.00
2023-02-13T03:57:23.193Z,100.00
2023-02-13T03:59:57.178Z,100.00
2023-02-13T04:02:30.834Z,100.00
2023-02-13T04:05:16.182Z,100.00
2023-02-13T04:07:46.296Z,100.00
2023-02-13T04:10:16.722Z,100.00
2023-02-13T04:13:14.834Z,100.00
2023-02-13T04:15:58.422Z,100.00
2023-02-13T04:18:32.166Z,100.00
2023-02-13T04:21:06.668Z,100.00
2023-02-13T04:23:37.080Z,100.00
2023-02-13T04:26:08.566Z,100.00
2023-02-13T04:28:38.483Z,100.00
2023-02-13T04:31:07.856Z,100.00
2023-02-13T04:33:37.876Z,100.00
2023-02-13T04:36:07.517Z,100.00
2023-02-13T04:38:36.998Z,100.00
2023-02-13T04:41:06.527Z,100.00
2023-02-13T04:43:37.983Z,100.00
2023-02-13T04:46:07.457Z,100.00
2023-02-13T04:48:38.793Z,100.00
2023-02-13T04:51:09.006Z,100.00
2023-02-13T04:53:38.894Z,100.00
2023-02-13T04:56:08.349Z,100.00
2023-02-13T04:58:38.525Z,100.00
2023-02-13T05:01:17.816Z,100.00
2023-02-13T05:03:47.375Z,100.00
2023-02-13T05:06:17.125Z,100.00
2023-02-13T05:08:46.784Z,100.00
2023-02-13T05:11:16.834Z,100.00
2023-02-13T05:13:50.893Z,100.00
2023-02-13T05:16:22.106Z,100.00
2023-02-13T05:18:55.389Z,100.00
2023-02-13T05:21:44.953Z,100.00
2023-02-13T05:24:14.100Z,100.00
2023-02-13T05:26:44.319Z,100.00
2023-02-13T05:29:19.574Z,100.00
2023-02-13T05:31:54.611Z,100.00
2023-02-13T05:34:25.303Z,100.00
2023-02-13T05:36:55.684Z,100.00
2023-02-13T05:39:25.039Z,100.00
2023-02-13T05:41:54.437Z,100.00
2023-02-13T05:44:24.272Z,100.00
2023-02-13T05:46:54.179Z,100.00
2023-02-13T05:49:23.937Z,100.00
2023-02-13T05:51:53.222Z,100.00
2023-02-13T05:54:22.519Z,100.00
2023-02-13T05:56:51.842Z,100.00
2023-02-13T05:59:23.207Z,100.00
2023-02-13T06:01:54.315Z,100.00
2023-02-13T06:04:23.904Z,100.00
2023-02-13T06:06:53.692Z,100.00
2023-02-13T06:09:23.117Z,100.00
2023-02-13T06:11:54.436Z,100.00
2023-02-13T06:14:24.124Z,100.00
2023-02-13T06:16:58.397Z,100.00
2023-02-13T06:19:28.025Z,100.00
2023-02-13T06:21:57.809Z,100.00
2023-02-13T06:24:27.604Z,100.00
2023-02-13T06:26:56.920Z,100.00
2023-02-13T06:29:26.300Z,100.00
2023-02-13T06:31:55.549Z,100.00
2023-02-13T06:34:25.245Z,100.00
2023-02-13T06:36:54.694Z,100.00
2023-02-13T06:39:24.112Z,100.00
2023-02-13T06:41:53.471Z,100.00
2023-02-13T06:44:24.123Z,100.00
2023-02-13T06:46:53.902Z,100.00
2023-02-13T06:49:23.294Z,100.00
2023-02-13T06:51:52.530Z,100.00
2023-02-13T06:54:31.191Z,100.00
2023-02-13T06:57:11.353Z,100.00
2023-02-13T06:59:40.658Z,100.00
2023-02-13T07:02:13.566Z,100.00
2023-02-13T07:04:46.141Z,100.00
2023-02-13T07:07:15.730Z,100.00
2023-02-13T07:09:45.177Z,100.00
2023-02-13T07:12:14.455Z,100.00
2023-02-13T07:14:43.742Z,100.00
2023-02-13T07:17:13.530Z,100.00
2023-02-13T07:19:42.968Z,100.00
2023-02-13T07:22:16.029Z,100.00
2023-02-13T07:24:46.600Z,100.00
2023-02-13T07:27:15.811Z,100.00
2023-02-13T07:29:45.248Z,100.00
2023-02-13T07:32:14.869Z,100.00
2023-02-13T07:34:59.551Z,100.00
2023-02-13T07:37:31.130Z,100.00
2023-02-13T07:40:00.592Z,100.00
2023-02-13T07:42:37.970Z,100.00
2023-02-13T07:45:08.943Z,100.00
2023-02-13T07:47:38.328Z,100.00
2023-02-13T07:50:09.129Z,100.00
2023-02-13T07:52:39.537Z,100.00
2023-02-13T07:55:12.365Z,100.00
2023-02-13T07:57:42.657Z,100.00
2023-02-13T08:00:14.057Z,100.00
2023-02-13T08:02:44.570Z,100.00
2023-02-13T08:05:14.463Z,100.00
2023-02-13T08:07:45.195Z,100.00
2023-02-13T08:10:37.493Z,100.00
2023-02-13T08:13:08.192Z,100.00
2023-02-13T08:15:37.851Z,100.00
2023-02-13T08:18:08.306Z,100.00
2023-02-13T08:20:38.297Z,100.00
2023-02-13T08:23:10.584Z,100.00
2023-02-13T08:25:43.365Z,100.00
2023-02-13T08:28:13.541Z,100.00
2023-02-13T08:30:43.722Z,100.00
2023-02-13T08:33:14.968Z,100.00
2023-02-13T08:35:44.788Z,100.00
2023-02-13T08:38:15.139Z,100.00
2023-02-13T08:40:45.803Z,100.00
2023-02-13T08:43:15.260Z,100.00
2023-02-13T08:45:47.277Z,100.00
2023-02-13T08:48:17.611Z,99.87
2023-02-13T08:50:47.392Z,97.40
2023-02-13T08:53:17.868Z,96.68
2023-02-13T08:55:55.545Z,96.72
2023-02-13T08:58:26.442Z,96.44
2023-02-13T09:00:56.551Z,95.18
2023-02-13T09:03:26.981Z,94.58
2023-02-13T09:06:00.096Z,95.25
2023-02-13T09:08:31.859Z,94.07
2023-02-13T09:11:02.847Z,94.58
2023-02-13T09:13:36.180Z,94.19
2023-02-13T09:16:08.224Z,93.71
2023-02-13T09:18:38.091Z,91.95
2023-02-13T09:21:09.340Z,91.86
2023-02-13T09:23:41.246Z,92.02
2023-02-13T09:26:12.582Z,91.12
2023-02-13T09:28:42.422Z,90.32
2023-02-13T09:31:17.152Z,87.82
2023-02-13T09:33:47.957Z,84.53
2023-02-13T09:36:22.303Z,84.51
2023-02-13T09:38:56.234Z,85.99
2023-02-13T09:41:33.197Z,85.35
2023-02-13T09:44:08.548Z,84.50
2023-02-13T09:46:41.784Z,82.29
2023-02-13T09:49:20.336Z,82.24
2023-02-13T09:51:54.334Z,80.80
2023-02-13T09:54:25.722Z,81.13
2023-02-13T09:57:08.710Z,82.10
2023-02-13T09:59:47.468Z,79.53
2023-02-13T10:02:32.447Z,78.97
2023-02-13T10:05:05.215Z,78.56
2023-02-13T10:08:02.056Z,76.05
2023-02-13T10:10:59.216Z,74.76
2023-02-13T10:13:45.434Z,74.07
2023-02-13T10:16:16.300Z,72.78
2023-02-13T10:18:49.040Z,72.45
2023-02-13T10:21:21.604Z,69.62
2023-02-13T10:24:02.654Z,70.30
2023-02-13T10:26:43.328Z,70.16
2023-02-13T10:29:42.714Z,70.43
2023-02-13T10:32:15.613Z,69.82
2023-02-13T10:34:46.216Z,68.64
2023-02-13T10:37:21.927Z,66.86
2023-02-13T10:39:54.925Z,67.51
2023-02-13T10:42:32.175Z,66.62
2023-02-13T10:45:21.715Z,67.80
2023-02-13T10:48:10.550Z,66.71
2023-02-13T10:51:01.312Z,66.41
2023-02-13T10:53:44.350Z,65.88
2023-02-13T10:56:46.074Z,66.26
2023-02-13T10:59:20.461Z,63.19
2023-02-13T11:01:56.943Z,61.12
2023-02-13T11:04:27.410Z,63.38
2023-02-13T11:07:03.352Z,64.88
2023-02-13T11:09:39.153Z,63.29
2023-02-13T11:12:33.217Z,62.31
2023-02-13T11:15:06.800Z,62.06
2023-02-13T11:17:38.310Z,60.97
2023-02-13T11:20:30.260Z,59.48
2023-02-13T11:23:19.376Z,60.53
2023-02-13T11:26:04.084Z,62.35
2023-02-13T11:28:37.326Z,63.52
2023-02-13T11:31:21.499Z,61.95
2023-02-13T11:33:51.449Z,62.26
2023-02-13T11:36:32.433Z,62.58
2023-02-13T11:39:07.826Z,61.85
2023-02-13T11:41:41.328Z,62.04
2023-02-13T11:44:20.640Z,59.71
2023-02-13T11:46:52.368Z,60.96
2023-02-13T11:49:26.655Z,61.90
2023-02-13T11:51:57.785Z,62.44
2023-02-13T11:54:27.459Z,62.93
2023-02-13T11:57:05.441Z,61.92
2023-02-13T11:59:43.323Z,61.90
2023-02-13T12:02:30.217Z,62.24
2023-02-13T12:05:19.684Z,60.74
2023-02-13T12:07:49.266Z,59.92
2023-02-13T12:10:23.881Z,60.48
2023-02-13T12:13:03.339Z,60.42
2023-02-13T12:15:34.578Z,59.86
2023-02-13T12:18:16.034Z,59.41
2023-02-13T12:20:59.264Z,58.51
2023-02-13T12:23:46.170Z,58.64
2023-02-13T12:26:19.557Z,59.32
2023-02-13T12:29:06.831Z,59.82
2023-02-13T12:32:11.815Z,58.83
2023-02-13T12:35:13.577Z,59.19
2023-02-13T12:38:14.946Z,60.01
2023-02-13T12:41:00.435Z,59.79
2023-02-13T12:43:42.324Z,58.99
2023-02-13T12:46:15.752Z,58.48
2023-02-13T12:48:53.611Z,58.98
2023-02-13T12:51:49.094Z,56.29
2023-02-13T12:54:42.062Z,55.79
2023-02-13T12:57:35.329Z,55.89
2023-02-13T13:00:14.957Z,58.11
2023-02-13T13:02:46.872Z,58.52
2023-02-13T13:05:27.499Z,58.76
2023-02-13T13:08:01.663Z,58.53
2023-02-13T13:11:04.016Z,55.67
2023-02-13T13:14:10.166Z,53.87
2023-02-13T13:16:52.686Z,55.00
2023-02-13T13:19:50.586Z,55.52
2023-02-13T13:22:34.147Z,55.49
2023-02-13T13:25:49.638Z,56.06
2023-02-13T13:28:24.271Z,55.29
2023-02-13T13:30:53.712Z,55.51
2023-02-13T13:33:26.326Z,54.81
2023-02-13T13:36:01.984Z,54.65
2023-02-13T13:38:36.384Z,53.63
2023-02-13T13:41:24.626Z,52.67
2023-02-13T13:44:12.060Z,52.52
2023-02-13T13:47:00.838Z,52.64
2023-02-13T13:49:37.491Z,52.82
2023-02-13T13:52:22.223Z,53.59
2023-02-13T13:54:53.206Z,54.10
2023-02-13T13:57:24.914Z,54.53
2023-02-13T14:00:30.277Z,54.35
2023-02-13T14:02:59.621Z,54.10
2023-02-13T14:05:33.909Z,54.35
2023-02-13T14:08:09.907Z,54.90
2023-02-13T14:10:59.893Z,55.45
2023-02-13T14:13:35.583Z,56.47
2023-02-13T14:16:07.878Z,57.33
2023-02-13T14:18:38.904Z,57.89
2023-02-13T14:21:09.013Z,58.52
2023-02-13T14:23:54.024Z,58.72
2023-02-13T14:26:31.164Z,59.53
2023-02-13T14:29:24.424Z,60.17
2023-02-13T14:32:06.113Z,61.31
2023-02-13T14:34:38.717Z,61.71
2023-02-13T14:37:13.580Z,61.99
2023-02-13T14:39:46.485Z,62.22
2023-02-13T14:42:26.475Z,62.95
2023-02-13T14:45:00.597Z,63.61
2023-02-13T14:47:40.906Z,64.23
2023-02-13T14:50:21.017Z,64.91
2023-02-13T14:52:51.284Z,65.66
2023-02-13T14:55:42.121Z,66.18
2023-02-13T14:58:21.715Z,67.07
2023-02-13T15:01:07.928Z,67.42
2023-02-13T15:03:40.718Z,68.10
2023-02-13T15:06:33.993Z,68.76
2023-02-13T15:09:07.070Z,69.42
2023-02-13T15:11:38.712Z,69.96
2023-02-13T15:14:17.869Z,70.34
2023-02-13T15:17:00.357Z,70.94
2023-02-13T15:19:29.930Z,71.32
2023-02-13T15:22:01.587Z,71.56
2023-02-13T15:24:39.658Z,72.16
2023-02-13T15:27:16.465Z,72.68
2023-02-13T15:29:56.104Z,73.16
2023-02-13T15:32:39.756Z,73.77
2023-02-13T15:35:34.838Z,74.36
2023-02-13T15:38:31.872Z,75.10
2023-02-13T15:41:14.106Z,75.90
2023-02-13T15:43:49.205Z,76.79
2023-02-13T15:46:34.479Z,77.46
2023-02-13T15:49:17.572Z,78.41
2023-02-13T15:51:48.342Z,79.30
2023-02-13T15:54:30.968Z,80.42
2023-02-13T15:57:02.125Z,81.21
2023-02-13T15:59:38.928Z,82.07
2023-02-13T16:02:24.671Z,82.37
2023-02-13T16:04:55.256Z,82.84
2023-02-13T16:08:02.977Z,83.17
2023-02-13T16:10:35.130Z,83.63
2023-02-13T16:13:07.286Z,84.20
2023-02-13T16:15:42.848Z,84.49
2023-02-13T16:18:19.759Z,85.08
2023-02-13T16:20:54.450Z,85.70
2023-02-13T16:23:25.496Z,86.59
2023-02-13T16:25:57.029Z,87.47
2023-02-13T16:28:28.632Z,88.44
2023-02-13T16:31:06.698Z,90.10
2023-02-13T16:33:39.693Z,91.52
2023-02-13T16:36:10.066Z,92.54
2023-02-13T16:38:50.599Z,93.93
2023-02-13T16:41:40.953Z,95.25
2023-02-13T16:44:30.156Z,96.54
2023-02-13T16:47:25.039Z,97.78
2023-02-13T16:49:57.012Z,98.45
2023-02-13T16:52:30.062Z,99.57
2023-02-13T16:55:00.965Z,99.92
2023-02-13T16:57:35.708Z,100.00
2023-02-13T17:00:07.451Z,100.00
2023-02-13T17:02:40.488Z,100.00
2023-02-13T17:05:11.916Z,100.00
2023-02-13T17:07:52.139Z,100.00
2023-02-13T17:10:29.949Z,100.00
2023-02-13T17:13:03.567Z,100.00
2023-02-13T17:15:35.644Z,100.00
2023-02-13T17:18:05.975Z,100.00
2023-02-13T17:20:37.462Z,100.00
2023-02-13T17:23:08.330Z,100.00
2023-02-13T17:25:40.825Z,100.00
2023-02-13T17:28:14.235Z,100.00
2023-02-13T17:30:44.452Z,100.00
2023-02-13T17:33:21.813Z,100.00
2023-02-13T17:35:54.718Z,100.00
2023-02-13T17:38:25.547Z,100.00
2023-02-13T17:40:56.532Z,100.00
2023-02-13T17:43:29.032Z,100.00
2023-02-13T17:46:01.650Z,100.00
2023-02-13T17:48:32.837Z,100.00
2023-02-13T17:51:04.554Z,100.00
2023-02-13T17:53:35.436Z,100.00
2023-02-13T17:56:09.484Z,100.00
2023-02-13T17:58:44.871Z,100.00
2023-02-13T18:01:17.424Z,100.00
2023-02-13T18:03:47.941Z,100.00
2023-02-13T18:06:20.006Z,100.00
2023-02-13T18:08:52.133Z,100.00
2023-02-13T18:11:24.252Z,100.00
2023-02-13T18:13:55.218Z,100.00
2023-02-13T18:16:32.452Z,100.00
2023-02-13T18:19:05.382Z,100.00
2023-02-13T18:21:36.884Z,100.00
2023-02-13T18:24:09.838Z,100.00
2023-02-13T18:26:43.815Z,100.00
2023-02-13T18:29:17.425Z,100.00
2023-02-13T18:31:53.798Z,100.00
2023-02-13T18:34:25.274Z,100.00
2023-02-13T18:36:55.923Z,100.00
2023-02-13T18:39:27.331Z,100.00
2023-02-13T18:41:57.786Z,100.00
2023-02-13T18:44:29.203Z,100.00
2023-02-13T18:47:01.603Z,100.00
2023-02-13T18:49:33.567Z,100.00
2023-02-13T18:52:04.822Z,100.00
2023-02-13T18:54:36.081Z,100.00
2023-02-13T18:57:06.698Z,100.00
2023-02-13T18:59:37.747Z,100.00
2023-02-13T19:02:07.686Z,100.00
2023-02-13T19:04:40.784Z,100.00
2023-02-13T19:07:11.125Z,100.00
2023-02-13T19:09:41.768Z,100.00
2023-02-13T19:12:12.616Z,100.00
2023-02-13T19:14:43.016Z,100.00
2023-02-13T19:17:14.205Z,100.00
2023-02-13T19:19:49.923Z,100.00
2023-02-13T19:22:20.451Z,100.00
2023-02-13T19:24:50.835Z,100.00
2023-02-13T19:27:22.351Z,100.00
2023-02-13T19:29:53.387Z,100.00
2023-02-13T19:32:23.642Z,100.00
2023-02-13T19:34:54.199Z,100.00
2023-02-13T19:37:28.523Z,100.00
2023-02-13T19:40:00.767Z,100.00
2023-02-13T19:42:30.989Z,100.00
2023-02-13T19:45:00.889Z,100.00
2023-02-13T19:47:30.622Z,100.00
2023-02-13T19:50:00.490Z,100.00
2023-02-13T19:52:31.150Z,100.00
2023-02-13T19:55:02.277Z,100.00
2023-02-13T19:57:32.822Z,100.00
2023-02-13T20:00:22.587Z,100.00
2023-02-13T20:03:07.295Z,100.00
2023-02-13T20:05:40.114Z,100.00
2023-02-13T20:08:11.217Z,100.00
2023-02-13T20:10:46.025Z,100.00
2023-02-13T20:13:17.615Z,100.00
2023-02-13T20:15:47.510Z,100.00
2023-02-13T20:18:23.347Z,100.00
2023-02-13T20:20:53.571Z,100.00
2023-02-13T20:23:23.487Z,100.00
2023-02-13T20:25:54.291Z,100.00
2023-02-13T20:28:24.236Z,100.00
2023-02-13T20:30:55.315Z,100.00
2023-02-13T20:33:25.635Z,100.00
2023-02-13T20:35:56.346Z,100.00
2023-02-13T20:38:26.279Z,100.00
2023-02-13T20:40:56.514Z,100.00
2023-02-13T20:43:42.200Z,100.00
2023-02-13T20:46:11.677Z,100.00
2023-02-13T20:48:44.715Z,100.00
2023-02-13T20:51:14.931Z,100.00
2023-02-13T20:53:45.858Z,100.00
2023-02-13T20:56:20.051Z,100.00
2023-02-13T20:58:50.723Z,100.00
2023-02-13T21:01:31.756Z,100.00
2023-02-13T21:04:01.732Z,100.00
2023-02-13T21:06:33.843Z,100.00
2023-02-13T21:09:04.374Z,100.00
2023-02-13T21:11:36.535Z,100.00
2023-02-13T21:14:06.252Z,100.00
2023-02-13T21:16:38.020Z,100.00
2023-02-13T21:19:09.688Z,100.00
2023-02-13T21:21:39.428Z,100.00
2023-02-13T21:24:09.338Z,100.00
2023-02-13T21:26:41.848Z,100.00
2023-02-13T21:29:11.592Z,100.00
2023-02-13T21:31:48.271Z,100.00
2023-02-13T21:34:18.419Z,100.00
2023-02-13T21:36:51.349Z,100.00
2023-02-13T21:39:20.889Z,100.00
2023-02-13T21:41:50.629Z,100.00
2023-02-13T21:44:20.800Z,100.00
2023-02-13T21:46:51.276Z,100.00
2023-02-13T21:49:21.444Z,100.00
2023-02-13T21:51:50.945Z,100.00
2023-02-13T21:54:40.007Z,100.00
2023-02-13T21:57:11.438Z,100.00
2023-02-13T21:59:41.524Z,100.00
2023-02-13T22:02:11.580Z,100.00
2023-02-13T22:04:42.664Z,100.00
2023-02-13T22:07:12.198Z,100.00
2023-02-13T22:09:42.822Z,100.00
2023-02-13T22:12:12.418Z,100.00
2023-02-13T22:14:45.247Z,100.00
2023-02-13T22:17:15.096Z,100.00
2023-02-13T22:19:45.469Z,100.00
2023-02-13T22:22:16.247Z,100.00
2023-02-13T22:24:47.713Z,100.00
2023-02-13T22:27:17.039Z,100.00
2023-02-13T22:29:46.608Z,100.00
2023-02-13T22:32:16.271Z,100.00
2023-02-13T22:34:45.963Z,100.00
2023-02-13T22:37:15.490Z,100.00
2023-02-13T22:39:45.524Z,100.00
2023-02-13T22:42:15.508Z,100.00
2023-02-13T22:44:45.300Z,100.00
2023-02-13T22:47:14.861Z,100.00
2023-02-13T22:49:44.757Z,100.00
2023-02-13T22:52:14.860Z,100.00
2023-02-13T22:54:44.441Z,100.00
2023-02-13T22:57:13.649Z,100.00
2023-02-13T22:59:44.943Z,100.00
2023-02-13T23:02:14.511Z,100.00
2023-02-13T23:04:44.203Z,100.00
2023-02-13T23:07:15.512Z,100.00
2023-02-13T23:09:45.783Z,100.00
2023-02-13T23:12:33.806Z,100.00
2023-02-13T23:15:05.228Z,100.00
2023-02-13T23:17:53.001Z,100.00
2023-02-13T23:20:24.251Z,100.00
2023-02-13T23:22:57.837Z,100.00
2023-02-13T23:25:27.211Z,100.00
2023-02-13T23:27:58.395Z,100.00
2023-02-13T23:30:29.023Z,100.00
2023-02-13T23:32:59.025Z,100.00
2023-02-13T23:35:28.184Z,100.00
2023-02-13T23:37:57.715Z,100.00
2023-02-13T23:40:27.384Z,100.00
2023-02-13T23:42:57.160Z,100.00
2023-02-13T23:45:26.548Z,100.00
2023-02-13T23:47:56.194Z,100.00
2023-02-13T23:50:25.653Z,100.00
2023-02-13T23:52:55.084Z,100.00
2023-02-13T23:55:24.184Z,100.00
2023-02-13T23:57:54.222Z,100.00
